Time;durP1;ratioP1;P1;durP2;ratioP2;P2;SDS_P1;SDS_P2;PMS_P1;PMS_P2;Temp;Humidity;BMP_temperature;BMP_pressure;BME280_temperature;BME280_humidity;BME280_pressure;Samples;Min_cycle;Max_cycle;Signal;HPM_P1;HPM_P2
2023/09/18 00:00:05;;;;;;;0.35;0.35;;;15.60;99.90;;;;;;5107482;28;20536;-73
2023/09/18 00:02:31;;;;;;;0.30;0.30;;;15.60;99.90;;;;;;5094514;28;20047;-73
2023/09/18 00:04:57;;;;;;;0.30;0.30;;;15.60;99.90;;;;;;5109194;28;20508;-73
2023/09/18 00:07:22;;;;;;;0.40;0.40;;;15.60;99.90;;;;;;5111492;27;20050;-73
2023/09/18 00:09:48;;;;;;;0.40;0.40;;;15.60;99.90;;;;;;5091243;28;20039;-73
2023/09/18 00:12:14;;;;;;;0.50;0.50;;;15.60;99.90;;;;;;5092738;28;20114;-73
2023/09/18 00:14:41;;;;;;;0.40;0.40;;;15.60;99.90;;;;;;5068979;28;20666;-74
2023/09/18 00:17:07;;;;;;;0.30;0.30;;;15.50;99.90;;;;;;5108736;28;20070;-74
2023/09/18 00:19:33;;;;;;;0.32;0.32;;;15.50;99.90;;;;;;5094261;28;20492;-73
2023/09/18 00:22:00;;;;;;;0.38;0.38;;;15.50;99.90;;;;;;5116849;27;20047;-74
2023/09/18 00:24:27;;;;;;;0.43;0.43;;;15.50;99.90;;;;;;5090719;28;20408;-74
2023/09/18 00:26:52;;;;;;;0.65;0.65;;;15.40;99.90;;;;;;5076789;28;20044;-74
2023/09/18 00:29:18;;;;;;;0.43;0.43;;;15.50;99.90;;;;;;5108466;27;20135;-74
2023/09/18 00:31:44;;;;;;;0.55;0.55;;;15.50;99.90;;;;;;5101778;27;20047;-74
2023/09/18 00:34:10;;;;;;;0.40;0.40;;;15.50;99.90;;;;;;5101406;27;20072;-74
2023/09/18 00:36:35;;;;;;;0.30;0.30;;;15.50;99.90;;;;;;5090004;28;20044;-74
2023/09/18 00:39:01;;;;;;;0.45;0.45;;;15.40;99.90;;;;;;5086681;27;20404;-74
2023/09/18 00:41:27;;;;;;;0.40;0.40;;;15.40;99.90;;;;;;5109991;27;20130;-74
2023/09/18 00:43:53;;;;;;;0.50;0.50;;;15.40;99.90;;;;;;5091687;27;20338;-73
2023/09/18 00:46:19;;;;;;;0.30;0.30;;;15.40;99.90;;;;;;5101900;27;20047;-74
2023/09/18 00:48:46;;;;;;;0.40;0.40;;;15.40;99.90;;;;;;5096402;28;20081;-73
2023/09/18 00:51:13;;;;;;;0.50;0.50;;;15.40;99.90;;;;;;5091480;27;20131;-73
2023/09/18 00:53:43;;;;;;;0.32;0.32;;;15.40;99.90;;;;;;5087035;28;20036;-74
2023/09/18 00:56:10;;;;;;;0.45;0.45;;;15.40;99.90;;;;;;5069798;28;20054;-73
2023/09/18 00:58:36;;;;;;;0.30;0.30;;;15.40;99.90;;;;;;5098699;27;20126;-74
2023/09/18 01:01:03;;;;;;;0.30;0.30;;;15.40;99.90;;;;;;5087376;28;20143;-74
2023/09/18 01:03:29;;;;;;;0.40;0.40;;;15.30;99.90;;;;;;5094095;27;20479;-73
2023/09/18 01:05:55;;;;;;;0.30;0.30;;;15.40;99.90;;;;;;5088185;28;20067;-73
2023/09/18 01:08:21;;;;;;;0.80;0.80;;;15.40;99.90;;;;;;5093144;28;20044;-74
2023/09/18 01:11:25;;;;;;;0.35;0.35;;;15.40;99.90;;;;;;5088254;27;20062;-74
2023/09/18 01:14:23;;;;;;;0.52;0.52;;;15.40;99.90;;;;;;5091731;28;20054;-74
2023/09/18 01:17:03;;;;;;;0.40;0.40;;;15.40;99.90;;;;;;5068342;28;20505;-75
2023/09/18 01:19:55;;;;;;;0.22;0.22;;;15.40;99.90;;;;;;5085941;28;20064;-75
2023/09/18 01:22:22;;;;;;;0.40;0.40;;;15.40;99.90;;;;;;5063287;28;20064;-75
2023/09/18 01:24:48;;;;;;;0.20;0.20;;;15.40;99.90;;;;;;5066130;28;20048;-74
2023/09/18 01:27:19;;;;;;;0.65;0.65;;;15.50;99.90;;;;;;5068452;28;20094;-75
2023/09/18 01:29:49;;;;;;;0.30;0.30;;;15.50;99.90;;;;;;5062607;28;20044;-75
2023/09/18 01:32:15;;;;;;;0.40;0.40;;;15.50;99.90;;;;;;5063321;28;20075;-75
2023/09/18 01:34:49;;;;;;;0.20;0.20;;;15.50;99.90;;;;;;5061054;28;20052;-76
2023/09/18 01:37:18;;;;;;;0.45;0.45;;;15.50;99.90;;;;;;5059321;28;20696;-75
2023/09/18 01:39:44;;;;;;;;;;;15.60;99.90;;;;;;5064891;28;20068;-75
2023/09/18 01:42:10;;;;;;;0.50;0.50;;;15.60;99.90;;;;;;5064909;28;19920;-75
2023/09/18 01:44:39;;;;;;;0.43;0.43;;;15.60;99.90;;;;;;5065048;28;20397;-75
2023/09/18 01:47:09;;;;;;;0.40;0.40;;;15.70;99.90;;;;;;5070510;28;20093;-76
2023/09/18 01:49:38;;;;;;;1.08;0.52;;;15.80;99.90;;;;;;5065538;28;20041;-76
2023/09/18 01:52:06;;;;;;;0.50;0.50;;;15.80;99.90;;;;;;5065371;28;20041;-76
2023/09/18 01:54:32;;;;;;;0.38;0.38;;;15.80;99.90;;;;;;5063512;28;20120;-76
2023/09/18 01:56:58;;;;;;;0.80;0.55;;;15.90;99.90;;;;;;5065301;28;20090;-76
2023/09/18 01:59:24;;;;;;;0.35;0.35;;;15.90;99.90;;;;;;5064221;28;20448;-76
2023/09/18 02:01:51;;;;;;;0.35;0.35;;;15.90;99.90;;;;;;5065144;28;20040;-76
2023/09/18 02:04:17;;;;;;;0.47;0.47;;;16.00;99.90;;;;;;5066050;28;20097;-76
2023/09/18 02:06:44;;;;;;;0.57;0.57;;;16.00;99.90;;;;;;5069936;28;20045;-76
2023/09/18 02:09:10;;;;;;;0.70;0.70;;;16.00;99.90;;;;;;5066488;28;20102;-76
2023/09/18 02:11:39;;;;;;;0.30;0.30;;;16.00;99.90;;;;;;5058872;28;20057;-76
2023/09/18 02:14:06;;;;;;;0.50;0.50;;;16.10;99.90;;;;;;5065138;28;20041;-76
2023/09/18 02:16:33;;;;;;;0.70;0.70;;;16.10;99.90;;;;;;5056723;28;20045;-76
2023/09/18 02:18:59;;;;;;;0.68;0.68;;;16.10;99.90;;;;;;5077915;28;20077;-76
2023/09/18 02:21:25;;;;;;;1.30;1.20;;;16.10;99.90;;;;;;5087220;28;20407;-77
2023/09/18 02:23:52;;;;;;;0.80;0.80;;;16.10;99.90;;;;;;5084285;28;20051;-76
2023/09/18 02:26:18;;;;;;;1.33;1.23;;;16.10;99.90;;;;;;5089879;28;20044;-76
2023/09/18 02:28:44;;;;;;;1.05;0.90;;;16.10;99.90;;;;;;5092231;28;20129;-76
2023/09/18 02:31:10;;;;;;;0.45;0.45;;;16.10;99.90;;;;;;5085252;28;20468;-77
2023/09/18 02:33:37;;;;;;;1.70;0.95;;;16.20;99.90;;;;;;5089399;28;20039;-76
2023/09/18 02:36:03;;;;;;;1.03;1.03;;;16.20;99.90;;;;;;5097086;28;20514;-77
2023/09/18 02:38:30;;;;;;;0.60;0.60;;;16.20;99.90;;;;;;5095925;28;20289;-77
2023/09/18 02:40:56;;;;;;;3.00;2.58;;;16.20;99.90;;;;;;5096476;28;20042;-77
2023/09/18 02:43:22;;;;;;;1.35;1.30;;;16.20;99.90;;;;;;5115683;27;20065;-77
2023/09/18 02:45:49;;;;;;;1.25;1.23;;;16.10;99.90;;;;;;5092827;27;20035;-77
2023/09/18 02:48:14;;;;;;;0.50;0.50;;;16.20;99.90;;;;;;5097208;28;20572;-77
2023/09/18 02:50:40;;;;;;;1.77;1.67;;;16.20;99.90;;;;;;5092595;28;20119;-77
2023/09/18 02:53:08;;;;;;;0.47;0.47;;;16.10;99.90;;;;;;5101781;27;20600;-77
2023/09/18 02:55:34;;;;;;;0.95;0.95;;;16.10;99.90;;;;;;5091138;28;20058;-77
2023/09/18 02:58:00;;;;;;;0.70;0.70;;;16.10;99.90;;;;;;5096279;28;20044;-77
2023/09/18 03:00:25;;;;;;;1.20;1.10;;;16.10;99.90;;;;;;5093924;28;20071;-77
2023/09/18 03:02:51;;;;;;;1.70;1.60;;;16.10;99.90;;;;;;5089365;28;20062;-77
2023/09/18 03:05:16;;;;;;;0.77;0.77;;;16.10;99.90;;;;;;5095163;28;20412;-77
2023/09/18 03:07:44;;;;;;;0.80;0.80;;;16.10;99.90;;;;;;5099175;28;20448;-77
2023/09/18 03:10:13;;;;;;;0.60;0.60;;;16.10;99.90;;;;;;5116970;27;20640;-77
2023/09/18 03:12:39;;;;;;;1.38;1.27;;;16.10;99.90;;;;;;5102023;28;20293;-77
2023/09/18 03:15:06;;;;;;;0.75;0.75;;;16.10;99.90;;;;;;5093199;27;20040;-78
2023/09/18 03:17:32;;;;;;;0.88;0.88;;;16.20;99.90;;;;;;5071515;28;20043;-78
2023/09/18 03:20:07;;;;;;;1.23;1.20;;;16.20;99.90;;;;;;5093880;28;20042;-78
2023/09/18 03:22:36;;;;;;;1.20;1.20;;;16.20;99.90;;;;;;5083575;28;20144;-77
2023/09/18 03:25:03;;;;;;;1.23;1.13;;;16.20;99.90;;;;;;5093827;28;20039;-77
2023/09/18 03:27:31;;;;;;;0.77;0.77;;;16.20;99.90;;;;;;5101075;27;20051;-77
2023/09/18 03:29:57;;;;;;;1.73;1.63;;;16.10;99.90;;;;;;5082880;28;20058;-78
2023/09/18 03:32:23;;;;;;;1.88;1.75;;;16.20;99.90;;;;;;5108157;27;20050;-78
2023/09/18 03:34:52;;;;;;;1.15;1.10;;;16.20;99.90;;;;;;5102172;28;20039;-78
2023/09/18 03:37:18;;;;;;;1.17;1.15;;;16.20;99.90;;;;;;5095141;27;20062;-78
2023/09/18 03:39:44;;;;;;;0.60;0.60;;;16.20;99.90;;;;;;5090780;28;20131;-78
2023/09/18 03:42:09;;;;;;;1.23;1.20;;;16.20;99.90;;;;;;5097695;27;20055;-78
2023/09/18 03:44:36;;;;;;;1.10;1.10;;;16.20;99.90;;;;;;5099296;28;20050;-78
2023/09/18 03:47:03;;;;;;;1.27;1.25;;;16.20;99.90;;;;;;5099022;28;20055;-78
2023/09/18 03:49:29;;;;;;;1.13;0.68;;;16.20;99.90;;;;;;5097054;28;20110;-78
2023/09/18 03:51:54;;;;;;;0.73;0.73;;;16.20;99.90;;;;;;5080918;28;20908;-78
2023/09/18 03:54:20;;;;;;;0.93;0.93;;;16.20;99.90;;;;;;5095644;27;20058;-78
2023/09/18 03:56:46;;;;;;;0.90;0.90;;;16.20;99.90;;;;;;5112468;27;20052;-78
2023/09/18 03:59:12;;;;;;;1.05;1.05;;;16.20;99.90;;;;;;5093340;28;20723;-78
2023/09/18 04:01:39;;;;;;;0.70;0.70;;;16.20;99.90;;;;;;5088382;28;20039;-77
2023/09/18 04:04:05;;;;;;;1.80;1.70;;;16.30;99.90;;;;;;5112215;27;20071;-78
2023/09/18 04:06:43;;;;;;;1.35;1.10;;;16.30;99.90;;;;;;5086016;28;20040;-77
2023/09/18 04:09:09;;;;;;;0.68;0.68;;;16.30;99.90;;;;;;5094372;27;20047;-78
2023/09/18 04:11:35;;;;;;;1.45;1.40;;;16.30;99.90;;;;;;5096139;27;20429;-77
2023/09/18 04:14:03;;;;;;;0.90;0.90;;;16.30;99.90;;;;;;5090641;27;20049;-78
2023/09/18 04:16:35;;;;;;;1.13;1.13;;;16.30;99.90;;;;;;5089880;28;20051;-78
2023/09/18 04:19:04;;;;;;;0.70;0.70;;;16.30;99.90;;;;;;5087117;28;20290;-78
2023/09/18 04:21:30;;;;;;;0.63;0.63;;;16.30;99.90;;;;;;5086131;28;20082;-78
2023/09/18 04:23:58;;;;;;;0.98;0.88;;;16.30;99.90;;;;;;5073448;28;20083;-78
2023/09/18 04:26:29;;;;;;;0.60;0.60;;;16.30;99.90;;;;;;5098914;27;20043;-77
2023/09/18 04:28:55;;;;;;;0.65;0.65;;;16.30;99.90;;;;;;5095760;28;20048;-78
2023/09/18 04:31:21;;;;;;;0.50;0.50;;;16.30;99.90;;;;;;5096733;28;20488;-78
2023/09/18 04:33:46;;;;;;;0.75;0.75;;;16.30;99.90;;;;;;5089699;28;20058;-78
2023/09/18 04:36:12;;;;;;;0.68;0.68;;;16.30;99.90;;;;;;5094830;28;20455;-78
2023/09/18 04:38:38;;;;;;;0.93;0.93;;;16.30;99.90;;;;;;5097733;27;20043;-78
2023/09/18 04:41:03;;;;;;;0.90;0.90;;;16.30;99.90;;;;;;5091966;28;20040;-78
2023/09/18 04:43:29;;;;;;;0.30;0.30;;;16.30;99.90;;;;;;5104898;28;20062;-78
2023/09/18 04:45:56;;;;;;;0.60;0.60;;;16.40;99.90;;;;;;5097946;27;20781;-78
2023/09/18 04:48:21;;;;;;;0.55;0.55;;;16.40;99.90;;;;;;5092011;28;20146;-78
2023/09/18 04:50:48;;;;;;;0.82;0.82;;;16.40;99.90;;;;;;5089882;28;20120;-78
2023/09/18 04:53:14;;;;;;;0.60;0.60;;;16.40;99.90;;;;;;5089024;28;20051;-78
2023/09/18 04:55:40;;;;;;;0.70;0.70;;;16.50;99.90;;;;;;5096155;28;20044;-78
2023/09/18 04:58:06;;;;;;;0.68;0.68;;;16.50;99.90;;;;;;5093394;28;20048;-78
2023/09/18 05:00:33;;;;;;;0.50;0.50;;;16.50;99.90;;;;;;5087909;28;20503;-78
2023/09/18 05:03:01;;;;;;;0.60;0.60;;;16.50;99.90;;;;;;5081843;28;20043;-78
2023/09/18 05:05:27;;;;;;;1.38;0.70;;;16.50;99.90;;;;;;5089846;28;20051;-78
2023/09/18 05:07:53;;;;;;;0.52;0.52;;;16.60;99.90;;;;;;5095786;28;20043;-78
2023/09/18 05:10:19;;;;;;;1.58;0.90;;;16.60;99.90;;;;;;5082284;28;20052;-78
2023/09/18 05:12:45;;;;;;;0.68;0.68;;;16.60;99.90;;;;;;5103610;28;20042;-78
2023/09/18 05:15:12;;;;;;;2.60;0.70;;;16.70;99.90;;;;;;5092638;28;20100;-78
2023/09/18 05:17:44;;;;;;;0.40;0.40;;;16.60;99.90;;;;;;5095091;28;20044;-78
2023/09/18 05:20:15;;;;;;;2.65;1.25;;;16.70;99.90;;;;;;5089389;28;20348;-78
2023/09/18 05:22:45;;;;;;;0.70;0.70;;;16.70;99.90;;;;;;5102277;27;20066;-78
2023/09/18 05:25:11;;;;;;;0.82;0.77;;;16.80;99.90;;;;;;5091819;28;20055;-77
2023/09/18 05:27:44;;;;;;;0.40;0.40;;;16.80;99.90;;;;;;5097134;28;20043;-77
2023/09/18 05:30:10;;;;;;;1.70;0.93;;;16.80;99.90;;;;;;5089539;28;20047;-77
2023/09/18 05:32:36;;;;;;;0.40;0.40;;;16.90;99.90;;;;;;5093880;28;20051;-77
2023/09/18 05:35:06;;;;;;;3.83;0.82;;;16.90;99.90;;;;;;5081736;28;20039;-77
2023/09/18 05:37:32;;;;;;;0.40;0.40;;;16.90;99.90;;;;;;5090199;28;20059;-77
2023/09/18 05:39:58;;;;;;;0.30;0.30;;;17.00;99.90;;;;;;5090322;28;20040;-77
2023/09/18 05:42:23;;;;;;;1.02;1.02;;;17.00;99.90;;;;;;5087914;28;20060;-77
2023/09/18 05:44:49;;;;;;;0.30;0.30;;;17.00;99.90;;;;;;5095540;27;20042;-78
2023/09/18 05:47:15;;;;;;;0.52;0.52;;;17.00;99.90;;;;;;5099458;28;20484;-78
2023/09/18 05:49:40;;;;;;;0.43;0.43;;;17.00;99.90;;;;;;5090280;28;20122;-78
2023/09/18 05:52:06;;;;;;;0.30;0.30;;;17.10;99.90;;;;;;5097603;27;20415;-78
2023/09/18 05:54:31;;;;;;;0.40;0.40;;;17.10;99.90;;;;;;5097463;28;20047;-78
2023/09/18 05:56:57;;;;;;;0.40;0.40;;;17.10;99.90;;;;;;5082652;28;20039;-77
2023/09/18 05:59:23;;;;;;;0.60;0.60;;;17.20;99.90;;;;;;5087986;28;20032;-78
2023/09/18 06:01:49;;;;;;;0.60;0.60;;;17.20;99.90;;;;;;5090758;28;20454;-77
2023/09/18 06:04:16;;;;;;;0.70;0.70;;;17.30;99.90;;;;;;5094669;28;20047;-78
2023/09/18 06:06:42;;;;;;;0.40;0.40;;;17.30;99.90;;;;;;5096957;28;20066;-78
2023/09/18 06:09:08;;;;;;;0.88;0.88;;;17.40;99.90;;;;;;5108007;28;20048;-78
2023/09/18 06:11:33;;;;;;;1.23;1.20;;;17.50;99.90;;;;;;5082337;28;20044;-78
2023/09/18 06:13:59;;;;;;;0.45;0.45;;;17.50;99.90;;;;;;5092591;28;20055;-78
2023/09/18 06:16:25;;;;;;;0.82;0.82;;;17.60;99.90;;;;;;5104800;28;20378;-77
2023/09/18 06:18:51;;;;;;;1.30;0.80;;;17.70;99.90;;;;;;5076797;28;20044;-77
2023/09/18 06:21:16;;;;;;;0.80;0.80;;;17.70;99.90;;;;;;5100894;27;20062;-78
2023/09/18 06:23:42;;;;;;;0.60;0.60;;;17.80;99.90;;;;;;5089497;28;20138;-79
2023/09/18 06:26:08;;;;;;;0.77;0.65;;;17.80;99.90;;;;;;5100466;28;20400;-78
2023/09/18 06:28:33;;;;;;;0.40;0.40;;;17.80;99.90;;;;;;5098421;27;20051;-78
2023/09/18 06:30:59;;;;;;;0.95;0.95;;;17.90;99.90;;;;;;5097381;27;20049;-77
2023/09/18 06:33:24;;;;;;;0.50;0.50;;;17.90;99.90;;;;;;5102090;28;20054;-77
2023/09/18 06:35:52;;;;;;;0.85;0.85;;;18.00;99.90;;;;;;5100379;27;20035;-77
2023/09/18 06:38:17;;;;;;;0.47;0.47;;;18.00;99.90;;;;;;5095058;28;20059;-76
2023/09/18 06:40:43;;;;;;;1.52;1.42;;;18.10;99.90;;;;;;5070194;27;20043;-76
2023/09/18 06:43:08;;;;;;;0.60;0.60;;;18.10;99.90;;;;;;5094757;28;20488;-78
2023/09/18 06:45:36;;;;;;;0.93;0.93;;;18.20;99.90;;;;;;5110497;28;20972;-78
2023/09/18 06:48:03;;;;;;;0.60;0.60;;;18.20;99.90;;;;;;5095221;27;20055;-78
2023/09/18 06:50:28;;;;;;;0.40;0.40;;;18.20;99.90;;;;;;5097197;27;20062;-78
2023/09/18 06:52:54;;;;;;;0.60;0.60;;;18.20;99.90;;;;;;5096337;27;20043;-79
2023/09/18 06:55:20;;;;;;;1.08;1.00;;;18.20;99.90;;;;;;5116713;27;20135;-77
2023/09/18 06:57:47;;;;;;;0.77;0.77;;;18.30;99.90;;;;;;5123074;27;20054;-78
2023/09/18 07:00:15;;;;;;;2.17;1.25;;;18.30;99.90;;;;;;5090695;27;20097;-78
2023/09/18 07:02:41;;;;;;;0.90;0.90;;;18.30;99.90;;;;;;5077055;28;20048;-77
2023/09/18 07:05:06;;;;;;;1.25;1.15;;;18.30;99.90;;;;;;5070492;28;20062;-78
2023/09/18 07:07:32;;;;;;;2.53;1.40;;;18.30;99.90;;;;;;5074822;28;20603;-80
2023/09/18 07:09:58;;;;;;;0.50;0.50;;;18.30;99.90;;;;;;5077253;28;20048;-78
2023/09/18 07:12:24;;;;;;;0.30;0.30;;;18.30;99.90;;;;;;5072554;28;20047;-79
2023/09/18 07:14:50;;;;;;;2.92;2.72;;;18.30;99.90;;;;;;5085556;28;20104;-79
2023/09/18 07:17:16;;;;;;;1.73;0.95;;;18.30;99.90;;;;;;5074125;28;20492;-78
2023/09/18 07:19:41;;;;;;;0.75;0.75;;;18.30;99.90;;;;;;5070229;28;20060;-80
2023/09/18 07:22:07;;;;;;;0.98;0.98;;;18.30;99.90;;;;;;5071466;28;20094;-79
2023/09/18 07:24:33;;;;;;;1.48;1.10;;;18.30;99.90;;;;;;5079380;28;20040;-78
2023/09/18 07:26:59;;;;;;;1.40;1.00;;;18.30;99.90;;;;;;5074670;28;20086;-78
2023/09/18 07:29:27;;;;;;;1.05;1.05;;;18.30;99.90;;;;;;5074158;28;20462;-78
2023/09/18 07:31:53;;;;;;;0.70;0.70;;;18.30;99.90;;;;;;5075746;28;20093;-78
2023/09/18 07:34:18;;;;;;;0.80;0.80;;;18.30;99.90;;;;;;5071503;28;20568;-78
2023/09/18 07:36:44;;;;;;;0.65;0.65;;;18.30;99.90;;;;;;5073581;28;20087;-78
2023/09/18 07:39:11;;;;;;;0.50;0.50;;;18.30;99.90;;;;;;5075704;28;20048;-77
2023/09/18 07:41:37;;;;;;;0.40;0.40;;;18.30;99.90;;;;;;5059277;28;20055;-78
2023/09/18 07:44:03;;;;;;;0.63;0.63;;;18.30;99.90;;;;;;5075525;28;20055;-79
2023/09/18 07:46:29;;;;;;;0.50;0.50;;;18.30;99.90;;;;;;5073941;28;20044;-79
2023/09/18 07:48:55;;;;;;;0.45;0.45;;;18.40;99.90;;;;;;5050859;28;20063;-79
2023/09/18 07:51:21;;;;;;;0.32;0.32;;;18.40;99.90;;;;;;5071626;28;20511;-79
2023/09/18 07:53:47;;;;;;;0.75;0.75;;;18.50;99.90;;;;;;5070732;28;20040;-78
2023/09/18 07:56:12;;;;;;;0.45;0.45;;;18.50;99.90;;;;;;5084755;28;20547;-78
2023/09/18 07:58:38;;;;;;;0.47;0.47;;;18.60;99.90;;;;;;5086170;28;20393;-79
2023/09/18 08:01:05;;;;;;;0.60;0.60;;;18.60;99.90;;;;;;5075061;28;20040;-79
2023/09/18 08:03:31;;;;;;;0.60;0.60;;;18.70;99.90;;;;;;5093521;28;20051;-80
2023/09/18 08:05:57;;;;;;;0.30;0.30;;;18.70;99.90;;;;;;5086780;28;20492;-79
2023/09/18 08:08:24;;;;;;;0.35;0.35;;;18.80;99.90;;;;;;5085799;28;20063;-79
2023/09/18 08:10:51;;;;;;;0.30;0.30;;;18.80;99.90;;;;;;5086830;28;20054;-79
2023/09/18 08:13:17;;;;;;;0.52;0.52;;;18.90;99.90;;;;;;5086914;28;20315;-78
2023/09/18 08:15:43;;;;;;;0.40;0.40;;;18.90;99.90;;;;;;5087601;28;20062;-79
2023/09/18 08:18:10;;;;;;;0.50;0.50;;;19.00;99.90;;;;;;5089952;28;20060;-79
2023/09/18 08:20:39;;;;;;;0.60;0.60;;;19.00;99.90;;;;;;5086630;28;20052;-80
2023/09/18 08:23:05;;;;;;;0.40;0.40;;;19.00;99.90;;;;;;5091695;28;20052;-79
2023/09/18 08:25:32;;;;;;;0.40;0.40;;;19.00;99.90;;;;;;5085014;28;20450;-79
2023/09/18 08:27:58;;;;;;;0.93;0.93;;;19.10;99.90;;;;;;5092229;28;20039;-79
2023/09/18 08:30:25;;;;;;;0.45;0.45;;;19.00;99.90;;;;;;5093130;28;20551;-79
2023/09/18 08:32:51;;;;;;;0.73;0.73;;;19.10;99.90;;;;;;5079395;28;20067;-79
2023/09/18 08:35:16;;;;;;;0.68;0.68;;;19.00;99.90;;;;;;5085504;28;20087;-73
2023/09/18 08:37:43;;;;;;;0.75;0.75;;;19.10;99.90;;;;;;5098166;28;20040;-74
2023/09/18 08:40:13;;;;;;;0.65;0.65;;;19.00;99.90;;;;;;5088041;28;20058;-74
2023/09/18 08:42:49;;;;;;;0.60;0.60;;;19.00;99.90;;;;;;5086958;28;20047;-74
2023/09/18 08:45:22;;;;;;;0.50;0.50;;;19.10;99.90;;;;;;5085448;28;20051;-73
2023/09/18 08:47:51;;;;;;;0.50;0.50;;;19.10;99.90;;;;;;5089267;28;20105;-73
2023/09/18 08:50:18;;;;;;;0.73;0.73;;;19.10;99.90;;;;;;5085038;28;20135;-72
2023/09/18 08:52:46;;;;;;;0.40;0.40;;;19.10;99.90;;;;;;5088992;28;20054;-73
2023/09/18 08:55:13;;;;;;;0.60;0.60;;;19.10;99.90;;;;;;5090580;28;20294;-73
2023/09/18 08:57:41;;;;;;;1.00;0.95;;;19.10;99.90;;;;;;5093197;28;20405;-73
2023/09/18 09:00:08;;;;;;;0.80;0.80;;;19.20;99.90;;;;;;5087695;28;20052;-73
2023/09/18 09:02:34;;;;;;;1.00;0.82;;;19.10;99.90;;;;;;5093651;28;20136;-73
2023/09/18 09:05:00;;;;;;;0.73;0.73;;;19.10;99.90;;;;;;5093072;28;20056;-72
2023/09/18 09:07:28;;;;;;;1.55;1.45;;;19.20;99.90;;;;;;5086721;28;20585;-73
2023/09/18 09:09:54;;;;;;;0.82;0.82;;;19.20;99.90;;;;;;5094482;28;20088;-73
2023/09/18 09:12:55;;;;;;;2.30;0.88;;;19.20;99.90;;;;;;5096361;28;20091;-72
2023/09/18 09:15:27;;;;;;;0.70;0.70;;;19.30;99.90;;;;;;5089069;28;20051;-72
2023/09/18 09:18:05;;;;;;;8.27;2.38;;;19.30;99.90;;;;;;5088518;27;20052;-73
2023/09/18 09:20:31;;;;;;;0.65;0.65;;;19.30;99.90;;;;;;5091933;28;20052;-73
2023/09/18 09:23:02;;;;;;;0.95;0.80;;;19.30;99.90;;;;;;5091670;27;20047;-72
2023/09/18 09:25:41;;;;;;;0.60;0.60;;;19.30;99.90;;;;;;5082584;27;20411;-71
2023/09/18 09:28:07;;;;;;;0.50;0.50;;;19.30;99.90;;;;;;5071887;28;20049;-71
2023/09/18 09:30:35;;;;;;;0.32;0.32;;;19.40;99.90;;;;;;5064122;28;20041;-72
2023/09/18 09:33:04;;;;;;;0.50;0.50;;;19.40;99.90;;;;;;5073193;28;20497;-71
2023/09/18 09:35:32;;;;;;;1.40;1.08;;;19.40;99.90;;;;;;5063259;28;20049;-71
2023/09/18 09:38:03;;;;;;;1.35;1.35;;;19.50;99.90;;;;;;5073959;28;20041;-76
2023/09/18 09:40:30;;;;;;;0.40;0.40;;;19.50;99.90;;;;;;5091960;28;20044;-77
2023/09/18 09:43:00;;;;;;;1.17;0.82;;;19.50;99.90;;;;;;5076304;28;20048;-76
2023/09/18 09:45:30;;;;;;;1.05;1.05;;;19.60;99.90;;;;;;5068433;28;20140;-76
2023/09/18 09:47:57;;;;;;;0.43;0.43;;;19.60;99.90;;;;;;5074345;28;20045;-76
2023/09/18 09:50:25;;;;;;;1.15;1.15;;;19.70;99.90;;;;;;5069739;28;20584;-76
2023/09/18 09:52:53;;;;;;;1.25;1.00;;;19.80;99.90;;;;;;5066817;28;20063;-76
2023/09/18 09:55:28;;;;;;;0.30;0.30;;;19.90;99.90;;;;;;5055446;28;20048;-78
2023/09/18 09:58:05;;;;;;;0.60;0.60;;;20.00;99.90;;;;;;5065246;28;20060;-76
2023/09/18 10:00:42;;;;;;;0.75;0.70;;;20.10;99.90;;;;;;5065670;28;20052;-76
2023/09/18 10:03:16;;;;;;;1.08;1.02;;;20.10;99.90;;;;;;5072140;28;20048;-76
2023/09/18 10:05:44;;;;;;;0.70;0.70;;;20.20;99.90;;;;;;5070951;28;20049;-75
2023/09/18 10:08:28;;;;;;;2.15;1.00;;;20.30;99.90;;;;;;5067955;28;20082;-76
2023/09/18 10:10:56;;;;;;;0.40;0.40;;;20.40;99.90;;;;;;5056197;28;20085;-75
2023/09/18 10:13:45;;;;;;;0.90;0.88;;;20.40;99.90;;;;;;5060807;28;20041;-74
2023/09/18 10:16:13;;;;;;;0.60;0.60;;;20.40;99.90;;;;;;5066985;28;20127;-75
2023/09/18 10:19:08;;;;;;;0.98;0.98;;;20.50;99.90;;;;;;5061220;28;20075;-75
2023/09/18 10:22:12;;;;;;;1.25;0.85;;;20.50;99.90;;;;;;5071946;28;20112;-75
2023/09/18 10:24:41;;;;;;;0.70;0.60;;;20.60;99.90;;;;;;5064880;28;20076;-75
2023/09/18 10:27:08;;;;;;;0.55;0.55;;;20.70;99.90;;;;;;5055841;28;20116;-75
2023/09/18 10:29:36;;;;;;;0.50;0.50;;;20.70;99.90;;;;;;5062879;28;20470;-74
2023/09/18 10:32:07;;;;;;;0.60;0.60;;;20.80;99.90;;;;;;5062077;28;20051;-74
2023/09/18 10:34:34;;;;;;;0.32;0.32;;;20.80;99.90;;;;;;5066863;28;20052;-76
2023/09/18 10:37:05;;;;;;;0.57;0.57;;;20.90;99.90;;;;;;5050603;28;20563;-75
2023/09/18 10:39:34;;;;;;;0.70;0.70;;;20.90;99.90;;;;;;5053248;28;20064;-75
2023/09/18 10:42:02;;;;;;;0.70;0.70;;;21.00;99.90;;;;;;5043865;28;20052;-75
2023/09/18 10:44:27;;;;;;;;;;;21.10;99.90;;;;;;5064511;28;20119;-75
2023/09/18 10:46:55;;;;;;;0.50;0.50;;;21.20;99.90;;;;;;5051457;28;20051;-75
2023/09/18 10:49:21;;;;;;;0.55;0.55;;;21.30;99.90;;;;;;5046761;28;20055;-75
2023/09/18 10:51:52;;;;;;;0.65;0.65;;;21.50;99.90;;;;;;5047520;28;20521;-75
2023/09/18 10:54:23;;;;;;;0.73;0.73;;;21.60;99.90;;;;;;5048640;28;20037;-75
2023/09/18 10:56:49;;;;;;;0.52;0.52;;;21.80;99.90;;;;;;5046817;28;20084;-74
2023/09/18 10:59:17;;;;;;;0.60;0.60;;;21.80;99.90;;;;;;5046245;28;20041;-74
2023/09/18 11:01:43;;;;;;;1.60;1.50;;;21.90;99.90;;;;;;5048112;28;20103;-74
2023/09/18 11:04:10;;;;;;;0.60;0.50;;;21.90;99.90;;;;;;5051132;28;20405;-74
2023/09/18 11:06:54;;;;;;;1.40;1.40;;;21.90;99.90;;;;;;5055404;28;20538;-75
2023/09/18 11:09:25;;;;;;;0.80;0.80;;;22.00;99.90;;;;;;5057500;28;20107;-74
2023/09/18 11:12:02;;;;;;;0.40;0.40;;;22.20;99.90;;;;;;5054092;28;20052;-75
2023/09/18 11:14:46;;;;;;;1.65;0.63;;;22.20;99.90;;;;;;5054455;28;20044;-74
2023/09/18 11:17:37;;;;;;;0.55;0.55;;;22.30;99.90;;;;;;5047584;28;20602;-76
2023/09/18 11:20:24;;;;;;;0.80;0.80;;;22.30;99.90;;;;;;5045203;28;20413;-75
2023/09/18 11:22:59;;;;;;;0.47;0.47;;;22.30;99.90;;;;;;5039571;28;20521;-75
2023/09/18 11:25:42;;;;;;;0.88;0.88;;;22.30;99.90;;;;;;5041725;28;20061;-74
2023/09/18 11:28:13;;;;;;;0.88;0.77;;;22.30;99.90;;;;;;5046028;28;20962;-75
2023/09/18 11:30:58;;;;;;;0.60;0.60;;;22.40;99.90;;;;;;5051412;28;20120;-74
2023/09/18 11:33:37;;;;;;;0.52;0.52;;;22.40;99.90;;;;;;5042219;28;20055;-75
2023/09/18 11:36:16;;;;;;;0.73;0.73;;;22.40;99.90;;;;;;5044057;28;20048;-74
2023/09/18 11:38:53;;;;;;;0.95;0.95;;;22.40;99.90;;;;;;5058258;28;20098;-74
2023/09/18 11:41:38;;;;;;;0.63;0.63;;;22.40;99.90;;;;;;5046394;28;20048;-71
2023/09/18 11:44:18;;;;;;;0.40;0.40;;;22.50;99.90;;;;;;5046675;28;20452;-70
2023/09/18 11:46:51;;;;;;;0.57;0.57;;;22.60;99.90;;;;;;5048003;28;20048;-71
2023/09/18 11:49:26;;;;;;;0.57;0.57;;;22.70;99.90;;;;;;5053543;28;20608;-71
2023/09/18 11:51:52;;;;;;;1.05;1.05;;;22.80;99.90;;;;;;5047576;28;20041;-71
2023/09/18 11:54:18;;;;;;;0.95;0.95;;;23.00;99.90;;;;;;5049354;28;20041;-71
2023/09/18 11:56:44;;;;;;;0.50;0.50;;;23.20;99.90;;;;;;5047770;28;20037;-71
2023/09/18 11:59:11;;;;;;;0.65;0.65;;;23.30;99.90;;;;;;5054599;28;20045;-71
2023/09/18 12:01:39;;;;;;;0.80;0.80;;;23.20;99.90;;;;;;5029807;28;20732;-70
2023/09/18 12:04:08;;;;;;;0.55;0.55;;;23.20;99.90;;;;;;5056931;28;20066;-70
2023/09/18 12:06:40;;;;;;;0.40;0.40;;;23.30;99.90;;;;;;5047409;28;20056;-70
2023/09/18 12:09:07;;;;;;;0.68;0.63;;;23.10;99.90;;;;;;5044586;28;20048;-69
2023/09/18 12:11:35;;;;;;;0.60;0.60;;;23.00;99.90;;;;;;5045310;28;20072;-70
2023/09/18 12:14:05;;;;;;;0.45;0.45;;;22.90;99.90;;;;;;5037732;28;20041;-70
2023/09/18 12:16:30;;;;;;;0.80;0.80;;;22.80;99.90;;;;;;5053043;28;20056;-71
2023/09/18 12:18:56;;;;;;;0.90;0.65;;;22.80;99.90;;;;;;5049244;28;20043;-70
2023/09/18 12:21:22;;;;;;;0.52;0.52;;;22.80;99.90;;;;;;5047506;28;20120;-71
2023/09/18 12:23:48;;;;;;;0.57;0.57;;;22.80;99.90;;;;;;5043682;28;21046;-70
2023/09/18 12:26:15;;;;;;;0.40;0.40;;;22.80;99.90;;;;;;5040586;28;20079;-71
2023/09/18 12:28:45;;;;;;;0.35;0.35;;;22.90;99.90;;;;;;5041843;28;20506;-71
2023/09/18 12:31:14;;;;;;;0.52;0.52;;;23.00;99.90;;;;;;5044968;28;20036;-71
2023/09/18 12:33:47;;;;;;;0.30;0.30;;;22.90;99.90;;;;;;5040922;28;20049;-71
2023/09/18 12:36:19;;;;;;;0.50;0.50;;;22.80;99.90;;;;;;5058188;28;20049;-70
2023/09/18 12:38:55;;;;;;;0.40;0.40;;;22.70;99.90;;;;;;5059011;28;20509;-70
2023/09/18 12:41:21;;;;;;;0.50;0.50;;;22.50;99.90;;;;;;5058005;28;20581;-70
2023/09/18 12:43:47;;;;;;;0.35;0.35;;;22.40;99.90;;;;;;5054804;28;20063;-70
2023/09/18 12:46:13;;;;;;;0.45;0.45;;;22.30;99.90;;;;;;5056481;28;20033;-71
2023/09/18 12:48:45;;;;;;;0.40;0.40;;;22.20;99.90;;;;;;5049888;28;20047;-70
2023/09/18 12:51:11;;;;;;;0.65;0.65;;;22.20;99.90;;;;;;5058269;28;20041;-71
2023/09/18 12:53:38;;;;;;;0.30;0.30;;;22.20;99.90;;;;;;5041038;28;20049;-71